Time;durP1;ratioP1;P1;durP2;ratioP2;P2;SDS_P1;SDS_P2;PMS_P1;PMS_P2;Temp;Humidity;BMP_temperature;BMP_pressure;BME280_temperature;BME280_humidity;BME280_pressure;Samples;Min_cycle;Max_cycle;Signal;HPM_P1;HPM_P2
2023/12/12 00:00:39;;;;;;;10.23;5.82;;;-1.40;99.90;;;;;;4994678;28;20101;-73
2023/12/12 00:03:05;;;;;;;9.52;6.60;;;-1.40;99.90;;;;;;4995240;28;20034;-74
2023/12/12 00:05:30;;;;;;;11.45;6.82;;;-1.50;99.90;;;;;;4995084;28;20038;-74
2023/12/12 00:07:56;;;;;;;9.05;5.20;;;-1.60;99.90;;;;;;4994988;28;20453;-74
2023/12/12 00:10:22;;;;;;;11.95;5.57;;;-1.60;99.90;;;;;;4995188;28;20026;-74
2023/12/12 00:12:48;;;;;;;12.23;6.10;;;-1.60;99.90;;;;;;4977619;28;20028;-74
2023/12/12 00:15:13;;;;;;;8.60;6.15;;;-1.70;99.90;;;;;;4994864;28;20030;-74
2023/12/12 00:17:39;;;;;;;10.50;5.55;;;-1.80;99.90;;;;;;4994125;28;20386;-73
2023/12/12 00:20:09;;;;;;;11.57;5.68;;;-1.80;99.90;;;;;;4977372;28;20085;-73
2023/12/12 00:22:36;;;;;;;15.75;6.85;;;-1.70;99.90;;;;;;4994764;28;20026;-74
2023/12/12 00:25:02;;;;;;;13.43;6.05;;;-1.70;99.90;;;;;;4994408;28;20117;-73
2023/12/12 00:27:27;;;;;;;13.75;6.30;;;-1.60;99.90;;;;;;4977083;28;20139;-73
2023/12/12 00:29:54;;;;;;;8.40;5.53;;;-1.70;99.90;;;;;;4994569;28;20014;-74
2023/12/12 00:32:19;;;;;;;11.05;6.38;;;-1.70;99.90;;;;;;4994975;28;20028;-74
2023/12/12 00:34:45;;;;;;;13.05;6.13;;;-1.80;99.90;;;;;;4977046;28;20109;-74
2023/12/12 00:37:11;;;;;;;10.18;5.78;;;-1.80;99.90;;;;;;4994393;28;20098;-73
2023/12/12 00:39:38;;;;;;;8.18;5.32;;;-1.70;99.90;;;;;;4977187;28;20023;-73
2023/12/12 00:42:04;;;;;;;13.43;5.85;;;-1.70;99.90;;;;;;4976941;28;20034;-74
2023/12/12 00:44:29;;;;;;;13.48;6.80;;;-1.70;99.90;;;;;;4994357;28;20130;-74
2023/12/12 00:46:55;;;;;;;11.05;5.63;;;-1.70;99.90;;;;;;4976711;28;20400;-72
2023/12/12 00:49:20;;;;;;;13.80;7.07;;;-1.80;99.90;;;;;;4976855;28;20049;-74
2023/12/12 00:51:46;;;;;;;9.05;5.90;;;-1.80;99.90;;;;;;4994032;28;20022;-74
2023/12/12 00:54:11;;;;;;;9.50;6.20;;;-1.70;99.90;;;;;;4994144;28;20362;-73
2023/12/12 00:56:37;;;;;;;10.63;5.30;;;-1.80;99.90;;;;;;4993934;28;20065;-72
2023/12/12 00:59:03;;;;;;;8.15;5.25;;;-1.80;99.90;;;;;;4976595;28;20022;-75
2023/12/12 01:01:28;;;;;;;10.70;6.25;;;-1.70;99.90;;;;;;4976611;28;20061;-73
2023/12/12 01:03:54;;;;;;;12.70;6.00;;;-1.70;99.90;;;;;;4976623;28;20061;-74
2023/12/12 01:06:26;;;;;;;9.18;5.38;;;-1.80;99.90;;;;;;4993768;28;20034;-73
2023/12/12 01:08:52;;;;;;;10.52;5.55;;;-1.80;99.90;;;;;;4993585;28;20030;-73
2023/12/12 01:11:18;;;;;;;11.90;5.68;;;-1.90;99.90;;;;;;4993099;28;20503;-73
2023/12/12 01:13:44;;;;;;;7.32;5.25;;;-1.90;99.90;;;;;;4993776;28;20440;-73
2023/12/12 01:16:10;;;;;;;9.70;4.90;;;-2.00;99.90;;;;;;4976158;28;20058;-74
2023/12/12 01:18:36;;;;;;;9.05;5.82;;;-2.00;99.90;;;;;;4993996;28;20050;-73
2023/12/12 01:21:02;;;;;;;10.60;5.60;;;-1.90;99.90;;;;;;4993702;28;20026;-73
2023/12/12 01:23:50;;;;;;;13.85;6.28;;;-1.90;99.90;;;;;;4975902;28;20464;-73
2023/12/12 01:26:15;;;;;;;9.52;5.57;;;-1.80;99.90;;;;;;4993198;28;20673;-73
2023/12/12 01:28:41;;;;;;;11.57;5.10;;;-1.80;99.90;;;;;;4993511;28;20030;-73
2023/12/12 01:31:07;;;;;;;7.82;4.93;;;-1.90;99.90;;;;;;4993453;28;20034;-73
2023/12/12 01:33:32;;;;;;;10.65;4.70;;;-1.90;99.90;;;;;;4993379;28;20058;-73
2023/12/12 01:35:58;;;;;;;8.60;5.25;;;-2.00;99.90;;;;;;4993101;28;20014;-72
2023/12/12 01:38:24;;;;;;;14.93;5.85;;;-2.00;99.90;;;;;;4993395;28;20019;-73
2023/12/12 01:40:49;;;;;;;12.55;6.95;;;-2.00;99.90;;;;;;4993340;28;20034;-73
2023/12/12 01:43:31;;;;;;;13.02;6.90;;;-2.10;99.90;;;;;;4993168;28;20033;-74
2023/12/12 01:46:03;;;;;;;13.32;6.28;;;-2.20;99.90;;;;;;4993036;28;20515;-73
2023/12/12 01:48:29;;;;;;;11.65;6.07;;;-2.20;99.90;;;;;;4993361;28;20427;-73
2023/12/12 01:50:56;;;;;;;11.23;5.80;;;-2.20;99.90;;;;;;4975832;28;20121;-74
2023/12/12 01:53:27;;;;;;;11.05;5.43;;;-2.20;99.90;;;;;;4992942;28;20090;-74
2023/12/12 01:55:53;;;;;;;11.02;5.68;;;-2.20;99.90;;;;;;4975490;28;20538;-73
2023/12/12 01:58:20;;;;;;;11.57;5.22;;;-2.20;99.90;;;;;;4992947;28;20022;-73
2023/12/12 02:00:47;;;;;;;9.82;4.90;;;-2.20;99.90;;;;;;4992985;28;20027;-73
2023/12/12 02:03:13;;;;;;;12.43;5.85;;;-2.20;99.90;;;;;;4992972;28;20033;-73
2023/12/12 02:05:41;;;;;;;8.65;4.60;;;-2.20;99.90;;;;;;4993097;28;20031;-74
2023/12/12 02:08:07;;;;;;;12.27;5.15;;;-2.20;99.90;;;;;;4975521;28;20026;-74
2023/12/12 02:10:33;;;;;;;11.20;6.63;;;-2.20;99.90;;;;;;4992788;28;20025;-74
2023/12/12 02:12:59;;;;;;;12.85;6.13;;;-2.20;99.90;;;;;;4975580;28;20026;-73
2023/12/12 02:15:25;;;;;;;10.00;5.38;;;-2.30;99.90;;;;;;4993019;28;20022;-73
2023/12/12 02:17:50;;;;;;;14.38;5.90;;;-2.40;99.90;;;;;;4975252;28;20030;-73
2023/12/12 02:20:16;;;;;;;11.05;5.38;;;-2.30;99.90;;;;;;4992824;28;20045;-74
2023/12/12 02:22:42;;;;;;;16.05;5.63;;;-2.40;99.90;;;;;;4975034;28;20030;-73
2023/12/12 02:25:08;;;;;;;6.53;4.75;;;-2.40;99.90;;;;;;4975062;28;20062;-73
2023/12/12 02:27:35;;;;;;;14.07;5.18;;;-2.30;99.90;;;;;;4975071;28;20034;-74
2023/12/12 02:30:02;;;;;;;8.25;4.95;;;-2.30;99.90;;;;;;4975364;28;20027;-73
2023/12/12 02:32:30;;;;;;;10.00;5.82;;;-2.30;99.90;;;;;;4992727;28;20033;-73
2023/12/12 02:34:56;;;;;;;9.07;5.20;;;-2.30;99.90;;;;;;4992719;28;20511;-74
2023/12/12 02:37:22;;;;;;;10.80;4.97;;;-2.40;99.90;;;;;;4976970;28;20050;-73
2023/12/12 02:39:47;;;;;;;9.13;4.30;;;-2.30;99.90;;;;;;4977338;28;20025;-73
2023/12/12 02:42:13;;;;;;;8.73;4.70;;;-2.30;99.90;;;;;;4994340;28;20500;-74
2023/12/12 02:44:38;;;;;;;10.68;5.13;;;-2.40;99.90;;;;;;4993681;28;20041;-75
2023/12/12 02:47:04;;;;;;;9.98;4.20;;;-2.40;99.90;;;;;;4992458;28;20030;-74
2023/12/12 02:49:30;;;;;;;9.02;5.05;;;-2.40;99.90;;;;;;4992987;28;20030;-73
2023/12/12 02:51:55;;;;;;;6.75;4.20;;;-2.40;99.90;;;;;;4992810;28;20481;-74
2023/12/12 02:54:21;;;;;;;17.85;4.88;;;-2.50;99.90;;;;;;4975078;28;20124;-73
2023/12/12 02:56:47;;;;;;;8.65;5.15;;;-2.50;99.90;;;;;;4974816;28;20065;-74
2023/12/12 02:59:12;;;;;;;7.07;3.55;;;-2.40;99.90;;;;;;4992385;28;20485;-74
2023/12/12 03:01:38;;;;;;;7.57;4.30;;;-2.50;99.90;;;;;;4992436;28;20058;-77
2023/12/12 03:04:03;;;;;;;5.20;4.10;;;-2.50;99.90;;;;;;4992400;28;20027;-73
2023/12/12 03:06:29;;;;;;;9.05;4.20;;;-2.50;99.90;;;;;;4992329;28;20030;-73
2023/12/12 03:08:55;;;;;;;8.25;4.70;;;-2.50;99.90;;;;;;4992306;28;20397;-73
2023/12/12 03:11:20;;;;;;;8.13;4.60;;;-2.50;99.90;;;;;;4992503;28;20030;-74
2023/12/12 03:13:46;;;;;;;5.28;4.10;;;-2.50;99.90;;;;;;4992202;28;20046;-74
2023/12/12 03:16:11;;;;;;;12.80;4.55;;;-2.50;99.90;;;;;;4992208;28;20109;-74
2023/12/12 03:18:37;;;;;;;8.65;5.35;;;-2.50;99.90;;;;;;4975039;28;20026;-74
2023/12/12 03:21:03;;;;;;;5.20;4.18;;;-2.50;99.90;;;;;;4975112;28;20396;-74
2023/12/12 03:23:28;;;;;;;7.10;3.75;;;-2.50;99.90;;;;;;4991850;28;20057;-74
2023/12/12 03:25:54;;;;;;;6.63;3.65;;;-2.40;99.90;;;;;;4992240;28;20042;-74
2023/12/12 03:28:20;;;;;;;6.38;4.20;;;-2.40;99.90;;;;;;4974684;28;20061;-73
2023/12/12 03:30:45;;;;;;;7.07;4.47;;;-2.50;99.90;;;;;;4992306;28;20180;-74
2023/12/12 03:33:11;;;;;;;10.18;4.60;;;-2.60;99.90;;;;;;4992482;28;20026;-74
2023/12/12 03:35:37;;;;;;;11.57;5.30;;;-2.70;99.90;;;;;;4994296;28;20027;-74
2023/12/12 03:38:03;;;;;;;9.02;4.47;;;-2.70;99.90;;;;;;4977391;28;20023;-74
2023/12/12 03:40:28;;;;;;;9.07;3.92;;;-2.80;99.90;;;;;;4978204;28;20022;-73
2023/12/12 03:42:54;;;;;;;4.68;3.70;;;-2.70;99.90;;;;;;4995712;28;20023;-73
2023/12/12 03:45:20;;;;;;;9.77;4.75;;;-2.80;99.90;;;;;;4995702;28;20069;-74
2023/12/12 03:47:45;;;;;;;9.27;3.92;;;-2.80;99.90;;;;;;4978039;28;20026;-74
2023/12/12 03:50:11;;;;;;;9.10;3.78;;;-2.80;99.90;;;;;;4978127;28;20081;-74
2023/12/12 03:52:38;;;;;;;9.63;4.30;;;-2.80;99.90;;;;;;4995403;28;20034;-74
2023/12/12 03:55:05;;;;;;;6.38;2.95;;;-2.70;99.90;;;;;;4995436;28;20022;-73
2023/12/12 03:57:31;;;;;;;11.52;5.15;;;-2.70;99.90;;;;;;4995044;28;20073;-74
2023/12/12 03:59:57;;;;;;;6.78;3.70;;;-2.70;99.90;;;;;;4977824;28;20026;-74
2023/12/12 04:02:22;;;;;;;8.13;4.72;;;-2.70;99.90;;;;;;4977850;28;20480;-72
2023/12/12 04:04:48;;;;;;;10.82;4.18;;;-2.70;99.90;;;;;;4995140;28;20439;-72
2023/12/12 04:07:14;;;;;;;5.97;4.10;;;-2.70;99.90;;;;;;4977390;28;20695;-73
2023/12/12 04:09:39;;;;;;;11.05;5.05;;;-2.70;99.90;;;;;;4975441;28;20027;-74
2023/12/12 04:12:05;;;;;;;6.95;3.80;;;-2.70;99.90;;;;;;4975577;28;20485;-74
2023/12/12 04:14:31;;;;;;;7.70;3.38;;;-2.80;99.90;;;;;;4975490;28;20026;-74
2023/12/12 04:16:56;;;;;;;8.68;3.97;;;-2.70;99.90;;;;;;4975157;28;20393;-73
2023/12/12 04:19:22;;;;;;;7.47;3.47;;;-2.70;99.90;;;;;;4958156;28;20034;-74
2023/12/12 04:21:48;;;;;;;9.02;4.25;;;-2.70;99.90;;;;;;4975580;28;20031;-74
2023/12/12 04:24:13;;;;;;;10.95;3.97;;;-2.70;99.90;;;;;;4975209;28;20453;-74
2023/12/12 04:26:39;;;;;;;9.23;4.55;;;-2.60;99.90;;;;;;4975316;28;20031;-74
2023/12/12 04:29:05;;;;;;;7.90;4.25;;;-2.60;99.90;;;;;;4958863;28;20180;-74
2023/12/12 04:31:30;;;;;;;5.40;3.08;;;-2.50;99.90;;;;;;4975880;28;20102;-74
2023/12/12 04:33:56;;;;;;;5.75;3.95;;;-2.40;99.90;;;;;;4975889;28;20023;-74
2023/12/12 04:36:21;;;;;;;8.07;4.60;;;-2.40;99.90;;;;;;4975212;28;20082;-74
2023/12/12 04:38:47;;;;;;;5.63;4.13;;;-2.40;99.90;;;;;;4975072;28;20054;-74
2023/12/12 04:41:13;;;;;;;6.15;4.28;;;-2.40;99.90;;;;;;4975068;28;20441;-73
2023/12/12 04:43:39;;;;;;;10.48;4.50;;;-2.40;99.90;;;;;;4957475;28;20485;-73
2023/12/12 04:46:05;;;;;;;7.75;4.43;;;-2.40;99.90;;;;;;4973522;28;20038;-74
2023/12/12 04:48:31;;;;;;;8.45;4.05;;;-2.40;99.90;;;;;;4974987;28;20089;-73
2023/12/12 04:50:56;;;;;;;6.60;3.95;;;-2.30;99.90;;;;;;4957709;28;20034;-73
2023/12/12 04:53:22;;;;;;;11.38;4.30;;;-2.30;99.90;;;;;;4974570;28;20023;-76
2023/12/12 04:55:48;;;;;;;7.57;4.57;;;-2.30;99.90;;;;;;4974807;28;20023;-73
2023/12/12 04:58:14;;;;;;;11.75;4.85;;;-2.40;99.90;;;;;;4959884;28;20023;-73
2023/12/12 05:00:39;;;;;;;11.30;5.10;;;-2.40;99.90;;;;;;4974696;28;20049;-73
2023/12/12 05:03:05;;;;;;;9.90;4.45;;;-2.40;99.90;;;;;;4974507;28;20109;-73
2023/12/12 05:05:31;;;;;;;11.93;4.40;;;-2.50;99.90;;;;;;4974582;28;20019;-74
2023/12/12 05:07:56;;;;;;;6.97;3.38;;;-2.60;99.90;;;;;;4957029;28;20501;-73
2023/12/12 05:10:22;;;;;;;4.97;3.58;;;-2.50;99.90;;;;;;4974461;28;20074;-73
2023/12/12 05:12:48;;;;;;;7.07;4.28;;;-2.50;99.90;;;;;;4974390;28;20027;-73
2023/12/12 05:15:13;;;;;;;8.52;4.38;;;-2.50;99.90;;;;;;4957023;28;20019;-74
2023/12/12 05:17:39;;;;;;;6.32;3.80;;;-2.50;99.90;;;;;;4974237;28;20023;-72
2023/12/12 05:20:05;;;;;;;3.97;3.40;;;-2.40;99.90;;;;;;4974299;28;20489;-75
2023/12/12 05:22:31;;;;;;;5.97;3.75;;;-2.30;99.90;;;;;;4974157;28;20027;-74
2023/12/12 05:24:57;;;;;;;8.38;3.72;;;-2.30;99.90;;;;;;4975621;23;20074;-74
2023/12/12 05:27:23;;;;;;;6.38;4.10;;;-2.20;99.90;;;;;;4973158;28;20054;-72
2023/12/12 05:29:48;;;;;;;8.50;3.80;;;-2.20;99.90;;;;;;4973871;28;20532;-75
2023/12/12 05:32:14;;;;;;;4.38;3.47;;;-2.10;99.90;;;;;;4956485;28;20059;-74
2023/12/12 05:34:40;;;;;;;5.70;3.50;;;-2.10;99.90;;;;;;4973816;28;20015;-74
2023/12/12 05:37:08;;;;;;;6.80;3.40;;;-2.10;99.90;;;;;;4956053;28;20500;-73
2023/12/12 05:39:33;;;;;;;8.27;3.35;;;-2.10;99.90;;;;;;4956362;28;20412;-74
2023/12/12 05:41:59;;;;;;;8.95;3.47;;;-2.20;99.90;;;;;;4973750;28;20098;-74
2023/12/12 05:44:24;;;;;;;5.70;3.55;;;-2.20;99.90;;;;;;4956299;28;20501;-74
2023/12/12 05:46:50;;;;;;;12.35;3.80;;;-2.20;99.90;;;;;;4964042;28;20062;-74
2023/12/12 05:49:16;;;;;;;7.50;3.95;;;-2.20;99.90;;;;;;4976109;28;20035;-74
2023/12/12 05:51:42;;;;;;;4.07;2.80;;;-2.30;99.90;;;;;;4973842;28;20481;-74
2023/12/12 05:54:11;;;;;;;5.22;3.13;;;-2.30;99.90;;;;;;4956160;28;20085;-74
2023/12/12 05:56:38;;;;;;;6.93;3.30;;;-2.40;99.90;;;;;;4973413;28;20022;-74
2023/12/12 05:59:04;;;;;;;14.32;4.65;;;-2.30;99.90;;;;;;4972999;28;20025;-73
2023/12/12 06:01:30;;;;;;;6.72;4.10;;;-2.30;99.90;;;;;;4973451;28;20478;-73
2023/12/12 06:03:55;;;;;;;5.95;3.42;;;-2.30;99.90;;;;;;4955939;28;20034;-74
2023/12/12 06:06:21;;;;;;;7.45;3.40;;;-2.20;99.90;;;;;;4973095;28;20034;-74
2023/12/12 06:08:47;;;;;;;10.45;4.10;;;-2.20;99.90;;;;;;4973311;28;20026;-74
2023/12/12 06:11:12;;;;;;;10.52;5.70;;;-2.00;99.90;;;;;;4973130;28;20034;-74
2023/12/12 06:13:38;;;;;;;6.88;4.35;;;-2.00;99.90;;;;;;4973170;28;20023;-74
2023/12/12 06:16:04;;;;;;;11.82;4.82;;;-2.00;99.90;;;;;;4955572;28;20026;-74
2023/12/12 06:18:30;;;;;;;6.65;4.40;;;-2.00;99.90;;;;;;4973210;28;20536;-74
2023/12/12 06:20:55;;;;;;;5.68;4.05;;;-2.00;99.90;;;;;;4973099;28;20071;-74
2023/12/12 06:23:21;;;;;;;7.28;3.40;;;-1.90;99.90;;;;;;4955651;28;20118;-74
2023/12/12 06:25:47;;;;;;;4.63;3.67;;;-1.90;99.90;;;;;;4972601;28;20547;-74
2023/12/12 06:28:12;;;;;;;4.80;3.50;;;-1.90;99.90;;;;;;4972869;28;20449;-73
2023/12/12 06:30:38;;;;;;;5.57;2.95;;;-1.80;99.90;;;;;;4955688;28;20053;-74
2023/12/12 06:33:04;;;;;;;7.80;3.85;;;-1.80;99.90;;;;;;4955688;28;20023;-74
2023/12/12 06:35:31;;;;;;;8.50;3.03;;;-1.80;99.90;;;;;;4969576;28;20031;-74
2023/12/12 06:37:56;;;;;;;16.33;3.65;;;-1.70;99.90;;;;;;4972014;28;20027;-74
2023/12/12 06:40:22;;;;;;;6.88;4.32;;;-0.30;99.90;;;;;;4972084;28;20034;-74
2023/12/12 06:42:48;;;;;;;8.25;4.05;;;-0.90;99.90;;;;;;4970990;28;20058;-74
2023/12/12 06:45:13;;;;;;;7.38;3.22;;;-1.20;99.90;;;;;;4972662;28;20401;-74
2023/12/12 06:47:39;;;;;;;3.80;3.28;;;-1.40;99.90;;;;;;4973063;28;20027;-74
2023/12/12 06:50:06;;;;;;;10.35;4.22;;;-1.50;99.90;;;;;;4954554;28;20031;-73
2023/12/12 06:52:35;;;;;;;9.68;4.95;;;-1.60;99.90;;;;;;4971481;28;20046;-73
2023/12/12 06:55:00;;;;;;;22.05;4.85;;;-1.70;99.90;;;;;;4955780;28;20034;-73
2023/12/12 06:57:26;;;;;;;8.90;4.13;;;-1.70;99.90;;;;;;4989804;28;20023;-74
2023/12/12 06:59:52;;;;;;;6.32;2.80;;;-1.80;99.90;;;;;;4991876;28;20043;-73
2023/12/12 07:02:18;;;;;;;4.63;3.15;;;-1.80;99.90;;;;;;4990701;28;20030;-74
2023/12/12 07:04:43;;;;;;;7.57;3.53;;;-1.70;99.90;;;;;;4971762;28;20023;-74
2023/12/12 07:07:09;;;;;;;9.15;3.63;;;-1.60;99.90;;;;;;4954052;28;20027;-74
2023/12/12 07:09:35;;;;;;;6.18;4.30;;;-1.60;99.90;;;;;;4972719;28;20030;-74
2023/12/12 07:12:01;;;;;;;16.98;4.22;;;-1.50;99.90;;;;;;4975278;28;20101;-74
2023/12/12 07:14:27;;;;;;;6.20;3.70;;;-1.50;99.90;;;;;;4958363;28;20629;-74
2023/12/12 07:16:52;;;;;;;10.90;3.42;;;-1.40;99.90;;;;;;4975389;28;20023;-74
2023/12/12 07:19:18;;;;;;;12.23;4.25;;;-1.40;99.90;;;;;;4975701;28;20461;-74
2023/12/12 07:21:44;;;;;;;14.73;4.93;;;-1.30;99.90;;;;;;4975491;28;20019;-74
2023/12/12 07:24:10;;;;;;;8.05;3.90;;;-1.20;99.90;;;;;;4974962;28;20026;-74
2023/12/12 07:26:36;;;;;;;15.68;4.95;;;-1.20;99.90;;;;;;4974891;28;20027;-74
2023/12/12 07:29:02;;;;;;;11.65;5.68;;;-1.10;99.90;;;;;;4975407;28;20137;-74
2023/12/12 07:31:28;;;;;;;12.48;5.60;;;-1.00;99.90;;;;;;4975509;28;20516;-74
2023/12/12 07:33:53;;;;;;;11.93;6.10;;;-1.00;99.90;;;;;;4975498;28;20023;-74
2023/12/12 07:36:19;;;;;;;10.65;5.25;;;-0.90;99.90;;;;;;4975555;28;20026;-74
2023/12/12 07:38:44;;;;;;;10.60;4.60;;;-0.80;99.90;;;;;;4974727;28;20026;-74
2023/12/12 07:41:10;;;;;;;7.00;4.88;;;-0.70;99.90;;;;;;4974621;28;20031;-75
2023/12/12 07:43:36;;;;;;;11.18;4.78;;;-0.60;99.90;;;;;;4958474;28;20023;-74
2023/12/12 07:46:02;;;;;;;12.70;5.00;;;-0.60;99.90;;;;;;4957662;28;20066;-73
2023/12/12 07:48:27;;;;;;;15.85;5.93;;;-0.40;99.90;;;;;;4971553;28;20058;-73
2023/12/12 07:50:54;;;;;;;19.23;5.43;;;-0.30;99.90;;;;;;4954911;28;20028;-74
2023/12/12 07:53:19;;;;;;;8.13;5.03;;;-0.40;99.90;;;;;;4957855;28;20034;-74
2023/12/12 07:55:45;;;;;;;9.52;5.47;;;-0.30;99.90;;;;;;4975425;28;20031;-74
2023/12/12 07:58:11;;;;;;;14.00;5.63;;;-0.30;99.90;;;;;;4958019;28;20374;-74
2023/12/12 08:00:36;;;;;;;8.60;4.55;;;-0.20;99.90;;;;;;4975537;28;20019;-74
2023/12/12 08:03:03;;;;;;;9.45;4.90;;;-0.10;99.90;;;;;;4965338;28;20027;-73
2023/12/12 08:05:29;;;;;;;8.80;5.22;;;-0.10;99.90;;;;;;4956038;29;20024;-74
2023/12/12 08:07:54;;;;;;;12.43;5.13;;;-0.10;99.90;;;;;;4938682;29;20046;-73
2023/12/12 08:10:20;;;;;;;13.55;5.07;;;-0.10;99.90;;;;;;4955967;29;20028;-74
2023/12/12 08:12:49;;;;;;;13.63;5.20;;;-0.10;99.90;;;;;;4971654;29;20042;-82
2023/12/12 08:15:15;;;;;;;20.63;6.53;;;0.40;99.90;;;;;;4977646;29;20011;-82
2023/12/12 08:17:40;;;;;;;14.70;6.35;;;-0.20;99.90;;;;;;4975386;29;20007;-81
2023/12/12 08:20:07;;;;;;;16.52;5.47;;;-0.20;99.90;;;;;;4947046;28;20038;-81
2023/12/12 08:22:33;;;;;;;14.85;6.45;;;0.10;99.90;;;;;;4945485;29;20038;-78
2023/12/12 08:25:00;;;;;;;17.02;6.38;;;1.10;99.90;;;;;;4939689;29;20031;-81
2023/12/12 08:27:27;;;;;;;22.10;7.35;;;3.30;99.90;;;;;;4960769;29;20477;-81
2023/12/12 08:29:58;;;;;;;13.52;7.10;;;2.10;99.90;;;;;;4973711;29;20024;-82
2023/12/12 08:32:25;;;;;;;10.10;5.38;;;0.80;99.90;;;;;;4964225;29;20103;-82
2023/12/12 08:34:50;;;;;;;10.73;5.45;;;2.90;99.90;;;;;;4939254;29;20070;-80
2023/12/12 08:37:16;;;;;;;11.20;5.00;;;0.20;99.90;;;;;;4938602;29;20032;-79
2023/12/12 08:39:42;;;;;;;9.73;5.05;;;0.60;99.90;;;;;;4938433;29;20185;-79
2023/12/12 08:42:07;;;;;;;10.52;5.13;;;0.70;99.90;;;;;;4960763;29;20027;-81
2023/12/12 08:44:33;;;;;;;20.92;6.03;;;1.70;99.90;;;;;;4943991;29;20545;-79
2023/12/12 08:46:59;;;;;;;7.78;4.35;;;0.70;99.90;;;;;;4948834;29;20055;-81
2023/12/12 08:49:25;;;;;;;25.75;5.13;;;0.80;99.90;;;;;;4944842;29;20074;-81
2023/12/12 08:51:51;;;;;;;13.00;6.70;;;4.50;99.90;;;;;;4959647;29;20020;-81
2023/12/12 08:54:17;;;;;;;17.13;5.03;;;1.00;99.90;;;;;;4939612;29;20037;-77
2023/12/12 08:56:45;;;;;;;16.67;5.50;;;2.90;99.90;;;;;;4937808;29;20559;-77
2023/12/12 08:59:10;;;;;;;24.23;7.18;;;0.90;99.90;;;;;;4954089;29;20059;-77
2023/12/12 09:01:36;;;;;;;16.65;6.63;;;1.10;99.90;;;;;;4937746;29;20062;-77
2023/12/12 09:04:02;;;;;;;27.67;8.45;;;1.90;99.90;;;;;;4953654;29;20453;-77
2023/12/12 09:06:28;;;;;;;25.00;8.55;;;1.30;99.90;;;;;;4952299;29;20143;-77
2023/12/12 09:08:53;;;;;;;16.92;7.43;;;1.30;99.90;;;;;;4954702;29;20031;-77
2023/12/12 09:11:19;;;;;;;11.55;5.63;;;1.40;99.90;;;;;;4937254;29;20038;-77
2023/12/12 09:13:45;;;;;;;12.70;6.45;;;1.50;99.90;;;;;;4954109;29;20031;-77
2023/12/12 09:16:11;;;;;;;15.20;6.25;;;1.60;99.90;;;;;;4954682;29;20019;-77
2023/12/12 09:18:37;;;;;;;14.38;8.32;;;1.60;99.90;;;;;;4958236;29;20031;-79
2023/12/12 09:21:03;;;;;;;11.70;6.50;;;1.80;99.90;;;;;;4955604;29;20419;-77
2023/12/12 09:23:28;;;;;;;12.50;5.15;;;1.90;99.90;;;;;;4954966;29;20035;-77
2023/12/12 09:25:55;;;;;;;11.82;4.95;;;2.10;99.90;;;;;;4954033;29;20035;-76
2023/12/12 09:28:21;;;;;;;17.30;6.57;;;2.10;99.90;;;;;;4954548;29;20043;-77
2023/12/12 09:30:47;;;;;;;7.93;4.80;;;2.20;99.90;;;;;;4942388;28;20468;-77
2023/12/12 09:33:12;;;;;;;8.65;4.28;;;2.20;99.90;;;;;;4950122;28;20018;-77
2023/12/12 09:35:38;;;;;;;11.15;5.35;;;3.50;99.90;;;;;;4952729;28;20054;-76
2023/12/12 09:38:03;;;;;;;26.77;7.57;;;4.40;99.90;;;;;;4971335;28;20023;-76
2023/12/12 09:40:30;;;;;;;11.77;7.07;;;4.50;99.90;;;;;;4972708;28;20397;-77
2023/12/12 09:42:57;;;;;;;13.48;6.82;;;4.30;99.90;;;;;;4971371;28;20034;-76
2023/12/12 09:45:25;;;;;;;11.00;6.57;;;4.00;99.90;;;;;;4956196;28;20038;-77
2023/12/12 09:47:51;;;;;;;15.93;5.97;;;3.80;99.90;;;;;;4972479;28;20027;-76
2023/12/12 09:50:17;;;;;;;11.95;5.03;;;3.60;99.90;;;;;;4956314;28;20038;-77
2023/12/12 09:52:45;;;;;;;23.45;8.52;;;3.60;99.90;;;;;;4973521;28;20035;-76
2023/12/12 09:55:13;;;;;;;15.93;6.85;;;3.30;99.90;;;;;;4956204;28;20689;-76
2023/12/12 09:57:38;;;;;;;9.55;6.13;;;3.50;99.90;;;;;;4973255;28;20031;-77
2023/12/12 10:00:05;;;;;;;8.88;5.38;;;3.60;99.90;;;;;;4973513;28;20022;-77
2023/12/12 10:02:37;;;;;;;10.60;4.47;;;3.60;99.90;;;;;;4973456;28;20027;-77
2023/12/12 10:05:04;;;;;;;8.02;3.85;;;3.60;99.90;;;;;;4973654;28;20027;-77
2023/12/12 10:07:31;;;;;;;9.13;4.13;;;3.90;99.90;;;;;;4955811;28;20053;-77
2023/12/12 10:09:57;;;;;;;12.85;6.15;;;3.90;99.90;;;;;;4973323;28;20057;-76
2023/12/12 10:12:22;;;;;;;9.40;5.47;;;4.00;99.90;;;;;;4973226;28;20070;-76
2023/12/12 10:14:48;;;;;;;12.20;5.88;;;4.20;99.90;;;;;;4955907;28;20070;-77
2023/12/12 10:17:14;;;;;;;14.57;5.50;;;4.30;99.90;;;;;;4955590;28;20118;-77
2023/12/12 10:19:41;;;;;;;11.50;6.15;;;4.30;99.90;;;;;;4956035;28;20461;-80
2023/12/12 10:22:08;;;;;;;10.98;5.93;;;4.40;99.90;;;;;;4955883;28;20031;-74
2023/12/12 10:24:37;;;;;;;15.05;8.00;;;4.50;99.90;;;;;;4972956;28;20027;-75
2023/12/12 10:27:06;;;;;;;21.77;10.73;;;4.60;99.90;;;;;;4972733;28;20072;-74
2023/12/12 10:29:32;;;;;;;11.63;6.45;;;4.70;99.90;;;;;;4973071;28;20022;-74
2023/12/12 10:31:59;;;;;;;11.60;5.20;;;4.60;99.90;;;;;;4972875;28;20070;-74
2023/12/12 10:34:27;;;;;;;11.60;6.07;;;4.60;99.90;;;;;;4972913;28;20026;-73
2023/12/12 10:36:53;;;;;;;13.00;6.07;;;4.50;99.90;;;;;;4972699;28;20516;-74
2023/12/12 10:39:19;;;;;;;10.82;5.88;;;4.30;99.90;;;;;;4955621;28;20113;-76
2023/12/12 10:41:55;;;;;;;8.38;5.38;;;5.00;99.90;;;;;;4972425;28;20178;-74
2023/12/12 10:44:28;;;;;;;11.50;5.95;;;6.20;99.90;;;;;;4957822;28;20118;-75
2023/12/12 10:46:54;;;;;;;8.05;4.93;;;6.20;99.90;;;;;;4959152;28;20430;-75
2023/12/12 10:49:28;;;;;;;7.47;5.15;;;6.60;99.90;;;;;;4959473;28;20026;-74
2023/12/12 10:51:54;;;;;;;9.85;5.18;;;6.30;99.90;;;;;;4959407;28;20066;-75
2023/12/12 10:54:24;;;;;;;11.43;5.35;;;7.00;99.90;;;;;;4958998;28;20073;-75
2023/12/12 10:56:50;;;;;;;14.55;6.55;;;6.90;99.90;;;;;;4974985;28;20484;-76
2023/12/12 10:59:17;;;;;;;9.07;5.60;;;7.00;99.90;;;;;;4959994;28;20041;-76
2023/12/12 11:01:47;;;;;;;10.85;4.78;;;6.50;99.90;;;;;;4976700;28;20031;-76
2023/12/12 11:04:14;;;;;;;13.63;6.45;;;6.20;99.90;;;;;;4959207;28;20082;-75
2023/12/12 11:06:42;;;;;;;14.65;8.07;;;6.00;99.90;;;;;;4976307;28;20027;-76
2023/12/12 11:09:08;;;;;;;45.53;16.35;;;6.00;99.90;;;;;;4976546;28;20109;-76
2023/12/12 11:11:36;;;;;;;38.63;14.57;;;6.00;99.90;;;;;;4976333;28;20105;-76
2023/12/12 11:14:02;;;;;;;14.07;6.00;;;5.70;99.90;;;;;;4976308;28;20596;-76
2023/12/12 11:16:28;;;;;;;14.05;5.72;;;5.40;99.90;;;;;;4962334;28;20019;-77
2023/12/12 11:18:55;;;;;;;21.02;9.63;;;6.00;99.90;;;;;;4985231;28;20023;-76
2023/12/12 11:21:46;;;;;;;15.82;7.00;;;6.30;99.90;;;;;;4985783;28;20026;-76
2023/12/12 11:24:17;;;;;;;70.32;23.95;;;6.40;99.90;;;;;;4984763;23;20055;-79
2023/12/12 11:26:44;;;;;;;13.85;8.07;;;6.40;99.90;;;;;;5001817;28;20049;-76
2023/12/12 11:29:18;;;;;;;16.05;4.65;;;6.30;99.90;;;;;;5001853;28;20067;-78
2023/12/12 11:32:01;;;;;;;9.23;5.22;;;6.30;99.90;;;;;;5019275;28;20053;-78
2023/12/12 11:34:35;;;;;;;7.45;4.22;;;6.20;99.90;;;;;;4997427;28;20048;-78
2023/12/12 11:37:02;;;;;;;12.18;5.18;;;6.20;99.90;;;;;;4982605;28;20117;-77
2023/12/12 11:39:51;;;;;;;7.65;4.72;;;6.20;99.90;;;;;;4982837;28;20029;-78
2023/12/12 11:42:26;;;;;;;9.75;4.03;;;6.40;99.90;;;;;;4999022;28;20041;-78
2023/12/12 11:44:52;;;;;;;9.77;4.53;;;6.50;99.90;;;;;;4982114;28;20029;-79
2023/12/12 11:47:24;;;;;;;8.45;4.35;;;6.70;99.90;;;;;;5000252;28;20485;-77
2023/12/12 11:50:10;;;;;;;9.40;4.10;;;6.70;99.90;;;;;;4980691;28;20398;-80
2023/12/12 11:52:39;;;;;;;8.65;4.55;;;6.70;99.90;;;;;;4997566;28;20034;-76
2023/12/12 11:55:18;;;;;;;9.73;3.85;;;7.20;99.90;;;;;;4980165;28;20022;-78
2023/12/12 11:57:44;;;;;;;6.18;3.15;;;6.80;99.90;;;;;;4980345;28;20018;-77
2023/12/12 12:00:14;;;;;;;4.47;3.65;;;6.90;99.90;;;;;;4995898;28;20503;-75
2023/12/12 12:02:43;;;;;;;8.57;3.35;;;7.00;99.90;;;;;;4980551;28;20030;-79
2023/12/12 12:05:09;;;;;;;6.50;3.58;;;7.20;99.90;;;;;;4981139;28;20037;-77
2023/12/12 12:07:38;;;;;;;5.95;4.00;;;7.40;99.90;;;;;;4997824;28;20022;-77
2023/12/12 12:10:05;;;;;;;5.97;3.30;;;7.30;99.90;;;;;;4997793;28;20026;-76
2023/12/12 12:12:31;;;;;;;4.18;2.92;;;7.30;99.90;;;;;;4998039;28;20022;-82
2023/12/12 12:15:09;;;;;;;8.45;3.50;;;7.10;99.90;;;;;;4979625;28;20030;-76
2023/12/12 12:17:36;;;;;;;7.15;3.40;;;7.10;99.90;;;;;;4996825;28;20034;-77
2023/12/12 12:20:02;;;;;;;5.78;3.95;;;7.30;99.90;;;;;;4998233;28;20022;-76
2023/12/12 12:22:28;;;;;;;5.55;3.33;;;7.40;99.90;;;;;;4980394;28;20026;-75
2023/12/12 12:24:54;;;;;;;5.05;2.78;;;7.50;99.90;;;;;;4997008;28;20034;-76
2023/12/12 12:27:20;;;;;;;4.13;2.63;;;7.50;99.90;;;;;;4976982;28;20049;-79
2023/12/12 12:30:05;;;;;;;9.15;5.28;;;7.50;99.90;;;;;;4996432;28;20142;-77
2023/12/12 12:32:32;;;;;;;6.68;5.10;;;7.60;99.90;;;;;;4979503;28;20036;-79
2023/12/12 12:35:11;;;;;;;6.80;5.20;;;7.60;99.90;;;;;;4997829;28;20412;-76
2023/12/12 12:37:38;;;;;;;8.82;4.05;;;7.50;99.90;;;;;;4990318;28;20034;-77
2023/12/12 12:40:05;;;;;;;6.22;4.55;;;7.50;99.90;;;;;;4990681;28;20018;-78
2023/12/12 12:42:35;;;;;;;3.70;3.40;;;7.40;99.90;;;;;;4979087;28;20033;-79